sensor_id;sensor_type;location;lat;lon;timestamp;pressure;altitude;pressure_sealevel;temperature;humidity
71043;BME280;58696;52.134;5.500;2023-07-31T00:01:03;101061.66;;;14.84;100.00
71043;BME280;58696;52.134;5.500;2023-07-31T00:03:35;101052.28;;;14.83;100.00
71043;BME280;58696;52.134;5.500;2023-07-31T00:06:03;101057.84;;;14.87;100.00
71043;BME280;58696;52.134;5.500;2023-07-31T00:08:35;101058.63;;;14.87;100.00
71043;BME280;58696;52.134;5.500;2023-07-31T00:11:06;101063.81;;;14.87;100.00
71043;BME280;58696;52.134;5.500;2023-07-31T00:13:33;101052.66;;;14.87;100.00
71043;BME280;58696;52.134;5.500;2023-07-31T00:16:02;101049.88;;;14.88;100.00
71043;BME280;58696;52.134;5.500;2023-07-31T00:18:28;101041.09;;;14.89;100.00
71043;BME280;58696;52.134;5.500;2023-07-31T00:20:55;101028.78;;;14.91;100.00
71043;BME280;58696;52.134;5.500;2023-07-31T00:23:22;101035.31;;;14.94;100.00
71043;BME280;58696;52.134;5.500;2023-07-31T00:25:48;101028.94;;;14.96;100.00
71043;BME280;58696;52.134;5.500;2023-07-31T00:28:17;101021.75;;;14.98;100.00
71043;BME280;58696;52.134;5.500;2023-07-31T00:30:44;101019.78;;;15.01;100.00
71043;BME280;58696;52.134;5.500;2023-07-31T00:33:14;101022.16;;;15.02;100.00
71043;BME280;58696;52.134;5.500;2023-07-31T00:35:41;101016.97;;;15.02;100.00
71043;BME280;58696;52.134;5.500;2023-07-31T00:38:08;101027.13;;;15.04;100.00
71043;BME280;58696;52.134;5.500;2023-07-31T00:40:36;101025.09;;;15.06;100.00
71043;BME280;58696;52.134;5.500;2023-07-31T00:43:05;101014.34;;;15.09;100.00
71043;BME280;58696;52.134;5.500;2023-07-31T00:45:34;101010.94;;;15.15;100.00
71043;BME280;58696;52.134;5.500;2023-07-31T00:48:05;101010.53;;;15.18;100.00
71043;BME280;58696;52.134;5.500;2023-07-31T00:50:35;101011.50;;;15.23;100.00
71043;BME280;58696;52.134;5.500;2023-07-31T00:53:05;101001.31;;;15.29;100.00
71043;BME280;58696;52.134;5.500;2023-07-31T00:55:34;100998.66;;;15.35;100.00
71043;BME280;58696;52.134;5.500;2023-07-31T00:58:04;100992.25;;;15.44;100.00
71043;BME280;58696;52.134;5.500;2023-07-31T01:00:34;100992.75;;;15.53;100.00
71043;BME280;58696;52.134;5.500;2023-07-31T01:03:01;100994.50;;;15.59;100.00
71043;BME280;58696;52.134;5.500;2023-07-31T01:08:57;100995.41;;;15.78;100.00
71043;BME280;58696;52.134;5.500;2023-07-31T01:11:43;100991.50;;;15.87;100.00
71043;BME280;58696;52.134;5.500;2023-07-31T01:14:13;100991.91;;;15.91;100.00
71043;BME280;58696;52.134;5.500;2023-07-31T01:16:42;100984.28;;;15.96;100.00
71043;BME280;58696;52.134;5.500;2023-07-31T01:19:14;100980.25;;;16.00;100.00
71043;BME280;58696;52.134;5.500;2023-07-31T01:27:03;101010.88;;;16.10;100.00
71043;BME280;58696;52.134;5.500;2023-07-31T01:32:02;101004.31;;;16.07;100.00
71043;BME280;58696;52.134;5.500;2023-07-31T01:34:32;100986.22;;;16.00;100.00
71043;BME280;58696;52.134;5.500;2023-07-31T01:37:01;100990.03;;;15.98;100.00
71043;BME280;58696;52.134;5.500;2023-07-31T01:39:30;100997.22;;;15.96;100.00
71043;BME280;58696;52.134;5.500;2023-07-31T01:42:00;100998.47;;;15.93;100.00
71043;BME280;58696;52.134;5.500;2023-07-31T01:44:27;100995.06;;;15.93;100.00
71043;BME280;58696;52.134;5.500;2023-07-31T01:46:54;100997.66;;;15.93;100.00
71043;BME280;58696;52.134;5.500;2023-07-31T01:49:21;100994.25;;;15.92;100.00
71043;BME280;58696;52.134;5.500;2023-07-31T01:51:57;100998.47;;;15.93;100.00
71043;BME280;58696;52.134;5.500;2023-07-31T01:54:25;100990.25;;;15.96;100.00
71043;BME280;58696;52.134;5.500;2023-07-31T01:56:51;100978.06;;;15.97;100.00
71043;BME280;58696;52.134;5.500;2023-07-31T01:59:23;100972.47;;;16.00;100.00
71043;BME280;58696;52.134;5.500;2023-07-31T02:01:52;100973.84;;;16.02;100.00
71043;BME280;58696;52.134;5.500;2023-07-31T02:04:21;100969.25;;;16.04;100.00
71043;BME280;58696;52.134;5.500;2023-07-31T02:06:49;100966.22;;;16.08;100.00
71043;BME280;58696;52.134;5.500;2023-07-31T02:09:18;100969.41;;;16.10;100.00
71043;BME280;58696;52.134;5.500;2023-07-31T02:11:45;100962.19;;;16.12;100.00
71043;BME280;58696;52.134;5.500;2023-07-31T02:14:20;100968.38;;;16.11;100.00
71043;BME280;58696;52.134;5.500;2023-07-31T02:16:47;100960.59;;;16.11;100.00
71043;BME280;58696;52.134;5.500;2023-07-31T02:19:14;100959.03;;;16.10;100.00
71043;BME280;58696;52.134;5.500;2023-07-31T02:21:40;100954.81;;;16.09;100.00
71043;BME280;58696;52.134;5.500;2023-07-31T02:24:14;100944.91;;;16.06;100.00
71043;BME280;58696;52.134;5.500;2023-07-31T02:26:41;100944.31;;;16.03;100.00
71043;BME280;58696;52.134;5.500;2023-07-31T02:29:08;100945.31;;;16.02;100.00
71043;BME280;58696;52.134;5.500;2023-07-31T02:31:35;100935.16;;;16.01;100.00
71043;BME280;58696;52.134;5.500;2023-07-31T02:34:07;100942.16;;;16.00;100.00
71043;BME280;58696;52.134;5.500;2023-07-31T02:36:36;100939.78;;;15.99;100.00
71043;BME280;58696;52.134;5.500;2023-07-31T02:39:04;100940.59;;;15.99;100.00
71043;BME280;58696;52.134;5.500;2023-07-31T02:41:35;100936.41;;;15.98;100.00
71043;BME280;58696;52.134;5.500;2023-07-31T02:44:07;100937.19;;;15.99;100.00
71043;BME280;58696;52.134;5.500;2023-07-31T02:46:34;100937.19;;;15.99;100.00
71043;BME280;58696;52.134;5.500;2023-07-31T02:49:01;100938.00;;;15.99;100.00
71043;BME280;58696;52.134;5.500;2023-07-31T02:51:30;100932.00;;;15.99;100.00
71043;BME280;58696;52.134;5.500;2023-07-31T02:53:59;100933.00;;;15.98;100.00
71043;BME280;58696;52.134;5.500;2023-07-31T02:56:29;100934.59;;;15.99;100.00
71043;BME280;58696;52.134;5.500;2023-07-31T02:59:00;100921.66;;;15.99;100.00
71043;BME280;58696;52.134;5.500;2023-07-31T03:01:29;100919.06;;;15.99;100.00
71043;BME280;58696;52.134;5.500;2023-07-31T03:03:59;100920.03;;;15.98;100.00
71043;BME280;58696;52.134;5.500;2023-07-31T03:06:26;100920.03;;;15.98;100.00
71043;BME280;58696;52.134;5.500;2023-07-31T03:08:54;100917.44;;;15.98;100.00
71043;BME280;58696;52.134;5.500;2023-07-31T03:11:23;100919.25;;;15.97;100.00
71043;BME280;58696;52.134;5.500;2023-07-31T03:13:53;100915.88;;;15.97;100.00
71043;BME280;58696;52.134;5.500;2023-07-31T03:16:20;100924.44;;;15.97;100.00
71043;BME280;58696;52.134;5.500;2023-07-31T03:18:47;100923.88;;;15.95;100.00
71043;BME280;58696;52.134;5.500;2023-07-31T03:21:14;100923.06;;;15.95;100.00
71043;BME280;58696;52.134;5.500;2023-07-31T03:23:40;100926.44;;;15.95;100.00
71043;BME280;58696;52.134;5.500;2023-07-31T03:26:12;100926.69;;;15.94;100.00
71043;BME280;58696;52.134;5.500;2023-07-31T03:28:42;100919.09;;;15.92;100.00
71043;BME280;58696;52.134;5.500;2023-07-31T03:31:11;100911.91;;;15.94;100.00
71043;BME280;58696;52.134;5.500;2023-07-31T03:33:38;100921.50;;;15.94;100.00
71043;BME280;58696;52.134;5.500;2023-07-31T03:36:05;100913.72;;;15.94;100.00
71043;BME280;58696;52.134;5.500;2023-07-31T03:38:32;100918.13;;;15.93;100.00
71043;BME280;58696;52.134;5.500;2023-07-31T03:40:59;100911.53;;;15.91;100.00
71043;BME280;58696;52.134;5.500;2023-07-31T03:43:25;100911.78;;;15.89;100.00
71043;BME280;58696;52.134;5.500;2023-07-31T03:45:53;100907.59;;;15.88;100.00
71043;BME280;58696;52.134;5.500;2023-07-31T03:48:20;100913.75;;;15.87;100.00
71043;BME280;58696;52.134;5.500;2023-07-31T03:50:46;100918.16;;;15.87;100.00
71043;BME280;58696;52.134;5.500;2023-07-31T03:53:16;100916.56;;;15.86;100.00
71043;BME280;58696;52.134;5.500;2023-07-31T03:55:50;100909.59;;;15.86;100.00
71043;BME280;58696;52.134;5.500;2023-07-31T03:58:22;100909.03;;;15.84;100.00
71043;BME280;58696;52.134;5.500;2023-07-31T04:00:49;100911.63;;;15.84;100.00
71043;BME280;58696;52.134;5.500;2023-07-31T04:03:16;100909.03;;;15.84;100.00
71043;BME280;58696;52.134;5.500;2023-07-31T04:05:45;100898.09;;;15.82;100.00
71043;BME280;58696;52.134;5.500;2023-07-31T04:08:16;100905.03;;;15.82;100.00
71043;BME280;58696;52.134;5.500;2023-07-31T04:10:45;100897.50;;;15.80;100.00
71043;BME280;58696;52.134;5.500;2023-07-31T04:13:14;100893.53;;;15.77;100.00
71043;BME280;58696;52.134;5.500;2023-07-31T04:15:41;100893.53;;;15.77;100.00
71043;BME280;58696;52.134;5.500;2023-07-31T04:18:14;100896.34;;;15.76;100.00
71043;BME280;58696;52.134;5.500;2023-07-31T04:20:45;100876.84;;;15.73;100.00
71043;BME280;58696;52.134;5.500;2023-07-31T04:23:15;100878.03;;;15.71;100.00
71043;BME280;58696;52.134;5.500;2023-07-31T04:25:41;100874.66;;;15.70;100.00
71043;BME280;58696;52.134;5.500;2023-07-31T04:28:08;100873.88;;;15.70;100.00
71043;BME280;58696;52.134;5.500;2023-07-31T04:30:37;100867.09;;;15.69;100.00
71043;BME280;58696;52.134;5.500;2023-07-31T04:33:03;100870.28;;;15.71;100.00
71043;BME280;58696;52.134;5.500;2023-07-31T04:35:37;100869.47;;;15.70;100.00
71043;BME280;58696;52.134;5.500;2023-07-31T04:38:06;100874.66;;;15.70;100.00
71043;BME280;58696;52.134;5.500;2023-07-31T04:40:35;100880.22;;;15.74;100.00
71043;BME280;58696;52.134;5.500;2023-07-31T04:43:10;100880.78;;;15.76;100.00
71043;BME280;58696;52.134;5.500;2023-07-31T04:45:42;100878.97;;;15.76;100.00
71043;BME280;58696;52.134;5.500;2023-07-31T04:48:15;100878.00;;;15.77;100.00
71043;BME280;58696;52.134;5.500;2023-07-31T04:50:44;100878.97;;;15.76;100.00
71043;BME280;58696;52.134;5.500;2023-07-31T04:53:15;100868.06;;;15.74;100.00
71043;BME280;58696;52.134;5.500;2023-07-31T04:55:42;100862.88;;;15.74;100.00
71043;BME280;58696;52.134;5.500;2023-07-31T04:58:13;100862.31;;;15.72;100.00
71043;BME280;58696;52.134;5.500;2023-07-31T05:00:40;100855.31;;;15.73;100.00
71043;BME280;58696;52.134;5.500;2023-07-31T05:03:08;100855.31;;;15.73;100.00
71043;BME280;58696;52.134;5.500;2023-07-31T05:05:37;100852.13;;;15.71;100.00
71043;BME280;58696;52.134;5.500;2023-07-31T05:08:09;100845.38;;;15.70;100.00
71043;BME280;58696;52.134;5.500;2023-07-31T05:10:35;100851.78;;;15.67;100.00
71043;BME280;58696;52.134;5.500;2023-07-31T05:13:04;100854.19;;;15.62;100.00
71043;BME280;58696;52.134;5.500;2023-07-31T05:15:31;100845.03;;;15.60;100.00
71043;BME280;58696;52.134;5.500;2023-07-31T05:18:00;100841.88;;;15.58;100.00
71043;BME280;58696;52.134;5.500;2023-07-31T05:20:27;100843.91;;;15.56;100.00
71043;BME280;58696;52.134;5.500;2023-07-31T05:23:00;100843.13;;;15.55;100.00
71043;BME280;58696;52.134;5.500;2023-07-31T05:25:27;100843.13;;;15.55;100.00
71043;BME280;58696;52.134;5.500;2023-07-31T05:27:59;100837.13;;;15.55;100.00
71043;BME280;58696;52.134;5.500;2023-07-31T05:30:26;100841.72;;;15.52;100.00
71043;BME280;58696;52.134;5.500;2023-07-31T05:32:56;100843.31;;;15.53;100.00
71043;BME280;58696;52.134;5.500;2023-07-31T05:35:25;100835.97;;;15.50;100.00
71043;BME280;58696;52.134;5.500;2023-07-31T05:37:55;100841.94;;;15.51;100.00
71043;BME280;58696;52.134;5.500;2023-07-31T05:40:22;100835.97;;;15.50;100.00
71043;BME280;58696;52.134;5.500;2023-07-31T05:42:51;100835.97;;;15.50;100.00
71043;BME280;58696;52.134;5.500;2023-07-31T05:45:20;100834.41;;;15.49;100.00
71043;BME280;58696;52.134;5.500;2023-07-31T05:47:46;100826.63;;;15.49;100.00
71043;BME280;58696;52.134;5.500;2023-07-31T05:50:16;100813.47;;;15.51;100.00
71043;BME280;58696;52.134;5.500;2023-07-31T05:52:45;100815.25;;;15.50;100.00
71043;BME280;58696;52.134;5.500;2023-07-31T05:55:16;100819.44;;;15.51;100.00
71043;BME280;58696;52.134;5.500;2023-07-31T05:57:45;100812.44;;;15.52;100.00
71043;BME280;58696;52.134;5.500;2023-07-31T06:00:13;100806.47;;;15.51;100.00
71043;BME280;58696;52.134;5.500;2023-07-31T06:02:43;100802.88;;;15.52;100.00
71043;BME280;58696;52.134;5.500;2023-07-31T06:05:15;100799.88;;;15.56;100.00
71043;BME280;58696;52.134;5.500;2023-07-31T06:07:41;100795.25;;;15.58;100.00
71043;BME280;58696;52.134;5.500;2023-07-31T06:10:13;100786.47;;;15.59;100.00
71043;BME280;58696;52.134;5.500;2023-07-31T06:12:43;100794.03;;;15.60;100.00
71043;BME280;58696;52.134;5.500;2023-07-31T06:15:10;100799.00;;;15.62;100.00
71043;BME280;58696;52.134;5.500;2023-07-31T06:17:38;100786.06;;;15.62;100.00
71043;BME280;58696;52.134;5.500;2023-07-31T06:20:06;100791.84;;;15.64;100.00
71043;BME280;58696;52.134;5.500;2023-07-31T06:22:33;100789.25;;;15.64;100.00
71043;BME280;58696;52.134;5.500;2023-07-31T06:25:01;100782.84;;;15.66;100.00
71043;BME280;58696;52.134;5.500;2023-07-31T06:27:28;100787.00;;;15.67;100.00
71043;BME280;58696;52.134;5.500;2023-07-31T06:29:59;100780.59;;;15.70;100.00
71043;BME280;58696;52.134;5.500;2023-07-31T06:32:31;100782.19;;;15.71;100.00
71043;BME280;58696;52.134;5.500;2023-07-31T06:34:57;100777.00;;;15.71;100.00
71043;BME280;58696;52.134;5.500;2023-07-31T06:37:24;100772.81;;;15.70;100.00
71043;BME280;58696;52.134;5.500;2023-07-31T06:39:55;100772.63;;;15.71;100.00
71043;BME280;58696;52.134;5.500;2023-07-31T06:42:23;100776.16;;;15.77;100.00
71043;BME280;58696;52.134;5.500;2023-07-31T06:44:51;100757.00;;;15.78;100.00
71043;BME280;58696;52.134;5.500;2023-07-31T06:47:18;100759.72;;;15.83;100.00
71043;BME280;58696;52.134;5.500;2023-07-31T06:49:44;100757.47;;;15.87;100.00
71043;BME280;58696;52.134;5.500;2023-07-31T06:52:11;100761.22;;;15.91;100.00
71043;BME280;58696;52.134;5.500;2023-07-31T06:54:38;100758.41;;;15.92;100.00
71043;BME280;58696;52.134;5.500;2023-07-31T06:57:04;100753.81;;;15.94;100.00
71043;BME280;58696;52.134;5.500;2023-07-31T06:59:33;100747.38;;;15.97;100.00
71043;BME280;58696;52.134;5.500;2023-07-31T07:02:00;100750.91;;;16.02;100.00
71043;BME280;58696;52.134;5.500;2023-07-31T07:04:32;100745.06;;;16.07;100.00
71043;BME280;58696;52.134;5.500;2023-07-31T07:07:01;100742.59;;;16.12;100.00
71043;BME280;58696;52.134;5.500;2023-07-31T07:09:30;100743.50;;;16.18;100.00
71043;BME280;58696;52.134;5.500;2023-07-31T07:11:59;100741.94;;;16.17;100.00
71043;BME280;58696;52.134;5.500;2023-07-31T07:14:27;100747.13;;;16.17;100.00
71043;BME280;58696;52.134;5.500;2023-07-31T07:16:53;100746.09;;;16.18;100.00
71043;BME280;58696;52.134;5.500;2023-07-31T07:19:26;100745.09;;;16.19;100.00
71043;BME280;58696;52.134;5.500;2023-07-31T07:21:52;100742.28;;;16.20;100.00
71043;BME280;58696;52.134;5.500;2023-07-31T07:24:21;100747.81;;;16.24;100.00
71043;BME280;58696;52.134;5.500;2023-07-31T07:26:49;100740.81;;;16.24;100.00
71043;BME280;58696;52.134;5.500;2023-07-31T07:29:17;100743.22;;;16.26;100.00
71043;BME280;58696;52.134;5.500;2023-07-31T07:31:46;100732.84;;;16.26;100.00
71043;BME280;58696;52.134;5.500;2023-07-31T07:34:13;100731.59;;;16.28;100.00
71043;BME280;58696;52.134;5.500;2023-07-31T07:36:39;100738.16;;;16.31;100.00
71043;BME280;58696;52.134;5.500;2023-07-31T07:39:09;100736.13;;;16.33;100.00
71043;BME280;58696;52.134;5.500;2023-07-31T07:41:39;100738.06;;;16.38;100.00
71043;BME280;58696;52.134;5.500;2023-07-31T07:44:08;100736.56;;;16.42;100.00
71043;BME280;58696;52.134;5.500;2023-07-31T07:46:37;100734.34;;;16.45;100.00
71043;BME280;58696;52.134;5.500;2023-07-31T07:49:04;100726.31;;;16.47;100.00
71043;BME280;58696;52.134;5.500;2023-07-31T07:51:31;100733.22;;;16.53;100.00
71043;BME280;58696;52.134;5.500;2023-07-31T07:54:00;100733.22;;;16.53;100.00
71043;BME280;58696;52.134;5.500;2023-07-31T07:56:27;100725.00;;;16.56;100.00
71043;BME280;58696;52.134;5.500;2023-07-31T07:58:54;100724.31;;;16.61;100.00
71043;BME280;58696;52.134;5.500;2023-07-31T08:01:21;100714.97;;;16.60;100.00
71043;BME280;58696;52.134;5.500;2023-07-31T08:03:50;100717.88;;;16.63;100.00
71043;BME280;58696;52.134;5.500;2023-07-31T08:06:16;100717.22;;;16.68;100.00
71043;BME280;58696;52.134;5.500;2023-07-31T08:08:43;100719.59;;;16.69;100.00
71043;BME280;58696;52.134;5.500;2023-07-31T08:11:10;100713.41;;;16.70;100.00
71043;BME280;58696;52.134;5.500;2023-07-31T08:13:42;100705.16;;;16.73;100.00
71043;BME280;58696;52.134;5.500;2023-07-31T08:16:11;100707.44;;;16.81;100.00
71043;BME280;58696;52.134;5.500;2023-07-31T08:18:40;100706.84;;;16.79;100.00
71043;BME280;58696;52.134;5.500;2023-07-31T08:21:11;100703.28;;;16.80;100.00
71043;BME280;58696;52.134;5.500;2023-07-31T08:23:40;100698.97;;;16.86;100.00
71043;BME280;58696;52.134;5.500;2023-07-31T08:26:06;100682.94;;;16.89;100.00
71043;BME280;58696;52.134;5.500;2023-07-31T08:28:36;100666.44;;;16.95;100.00
71043;BME280;58696;52.134;5.500;2023-07-31T08:31:03;100665.31;;;17.03;100.00
71043;BME280;58696;52.134;5.500;2023-07-31T08:33:32;100662.59;;;17.09;100.00
71043;BME280;58696;52.134;5.500;2023-07-31T08:36:04;100670.50;;;17.15;100.00
71043;BME280;58696;52.134;5.500;2023-07-31T08:38:34;100664.97;;;17.11;100.00
71043;BME280;58696;52.134;5.500;2023-07-31T08:41:05;100660.00;;;17.09;100.00
71043;BME280;58696;52.134;5.500;2023-07-31T08:43:35;100661.03;;;17.08;100.00
71043;BME280;58696;52.134;5.500;2023-07-31T08:46:05;100666.88;;;17.16;100.00
71043;BME280;58696;52.134;5.500;2023-07-31T08:48:35;100651.63;;;17.19;100.00
71043;BME280;58696;52.134;5.500;2023-07-31T08:51:06;100663.44;;;17.27;100.00
71043;BME280;58696;52.134;5.500;2023-07-31T08:53:35;100662.44;;;17.28;100.00
71043;BME280;58696;52.134;5.500;2023-07-31T08:56:06;100658.69;;;17.35;100.00
71043;BME280;58696;52.134;5.500;2023-07-31T08:58:34;100665.91;;;17.45;100.00
71043;BME280;58696;52.134;5.500;2023-07-31T09:01:04;100651.09;;;17.46;100.00
71043;BME280;58696;52.134;5.500;2023-07-31T09:03:34;100657.63;;;17.48;100.00
71043;BME280;58696;52.134;5.500;2023-07-31T09:06:02;100661.75;;;17.61;100.00
71043;BME280;58696;52.134;5.500;2023-07-31T09:08:34;100655.84;;;17.66;100.00
71043;BME280;58696;52.134;5.500;2023-07-31T09:11:01;100658.13;;;17.74;100.00
71043;BME280;58696;52.134;5.500;2023-07-31T09:13:32;100667.25;;;17.76;100.00
71043;BME280;58696;52.134;5.500;2023-07-31T09:16:01;100660.94;;;17.72;100.00
71043;BME280;58696;52.134;5.500;2023-07-31T09:18:31;100657.44;;;17.67;100.00
71043;BME280;58696;52.134;5.500;2023-07-31T09:21:05;100656.44;;;17.68;100.00
71043;BME280;58696;52.134;5.500;2023-07-31T09:23:43;100663.31;;;17.74;100.00
71043;BME280;58696;52.134;5.500;2023-07-31T09:26:12;100651.91;;;17.75;100.00
71043;BME280;58696;52.134;5.500;2023-07-31T09:28:54;100648.94;;;17.71;100.00
71043;BME280;58696;52.134;5.500;2023-07-31T09:31:41;100647.38;;;17.70;100.00
71043;BME280;58696;52.134;5.500;2023-07-31T09:34:08;100635.94;;;17.71;100.00
71043;BME280;58696;52.134;5.500;2023-07-31T09:36:43;100644.53;;;17.72;100.00
71043;BME280;58696;52.134;5.500;2023-07-31T09:39:11;100644.88;;;17.75;100.00
71043;BME280;58696;52.134;5.500;2023-07-31T09:41:39;100632.91;;;17.74;100.00
71043;BME280;58696;52.134;5.500;2023-07-31T09:44:08;100639.31;;;17.72;100.00
71043;BME280;58696;52.134;5.500;2023-07-31T09:46:35;100631.66;;;17.77;100.00
71043;BME280;58696;52.134;5.500;2023-07-31T09:49:09;100632.16;;;17.91;100.00
71043;BME280;58696;52.134;5.500;2023-07-31T09:51:40;100623.66;;;17.95;100.00
71043;BME280;58696;52.134;5.500;2023-07-31T09:54:12;100634.44;;;18.04;100.00
71043;BME280;58696;52.134;5.500;2023-07-31T09:56:46;100624.75;;;18.16;100.00
71043;BME280;58696;52.134;5.500;2023-07-31T09:59:20;100626.41;;;18.22;100.00
71043;BME280;58696;52.134;5.500;2023-07-31T10:01:52;100628.06;;;18.28;100.00
71043;BME280;58696;52.134;5.500;2023-07-31T10:04:27;100629.63;;;18.29;100.00
71043;BME280;58696;52.134;5.500;2023-07-31T10:06:54;100629.31;;;18.26;100.00
71043;BME280;58696;52.134;5.500;2023-07-31T10:09:23;100623.31;;;18.25;100.00
71043;BME280;58696;52.134;5.500;2023-07-31T10:11:56;100620.97;;;18.24;100.00
71043;BME280;58696;52.134;5.500;2023-07-31T10:14:26;100623.72;;;18.34;100.00
71043;BME280;58696;52.134;5.500;2023-07-31T10:16:57;100625.28;;;18.35;100.00
71043;BME280;58696;52.134;5.500;2023-07-31T10:19:26;100637.19;;;18.31;100.00
71043;BME280;58696;52.134;5.500;2023-07-31T10:21:56;100633.97;;;18.24;100.00
71043;BME280;58696;52.134;5.500;2023-07-31T10:24:26;100631.22;;;18.13;100.00
71043;BME280;58696;52.134;5.500;2023-07-31T10:26:59;100630.44;;;18.13;100.00
71043;BME280;58696;52.134;5.500;2023-07-31T10:29:27;100629.00;;;18.22;100.00
71043;BME280;58696;52.134;5.500;2023-07-31T10:31:58;100634.69;;;18.19;100.00
71043;BME280;58696;52.134;5.500;2023-07-31T10:34:26;100628.69;;;18.19;100.00
71043;BME280;58696;52.134;5.500;2023-07-31T10:37:29;100624.13;;;18.09;100.00
71043;BME280;58696;52.134;5.500;2023-07-31T10:40:00;100619.16;;;18.07;100.00
71043;BME280;58696;52.134;5.500;2023-07-31T10:42:29;100625.69;;;18.10;100.00
71043;BME280;58696;52.134;5.500;2023-07-31T10:45:01;100620.03;;;18.13;100.00
71043;BME280;58696;52.134;5.500;2023-07-31T10:47:28;100623.47;;;18.19;100.00
71043;BME280;58696;52.134;5.500;2023-07-31T10:50:20;100622.53;;;18.25;100.00
71043;BME280;58696;52.134;5.500;2023-07-31T10:52:51;100622.59;;;18.30;100.00
71043;BME280;58696;52.134;5.500;2023-07-31T10:57:47;100619.75;;;18.48;100.00
71043;BME280;58696;52.134;5.500;2023-07-31T11:00:29;100621.94;;;18.56;100.00
71043;BME280;58696;52.134;5.500;2023-07-31T11:03:00;100621.94;;;18.56;100.00
71043;BME280;58696;52.134;5.500;2023-07-31T11:06:03;100613.88;;;18.58;100.00
71043;BME280;58696;52.134;5.500;2023-07-31T11:08:35;100618.25;;;18.52;100.00
71043;BME280;58696;52.134;5.500;2023-07-31T11:13:29;100624.22;;;18.70;100.00
71043;BME280;58696;52.134;5.500;2023-07-31T11:15:55;100612.25;;;18.69;100.00
71043;BME280;58696;52.134;5.500;2023-07-31T11:18:22;100619.47;;;18.66;100.00
71043;BME280;58696;52.134;5.500;2023-07-31T11:20:50;100622.09;;;18.66;100.00
71043;BME280;58696;52.134;5.500;2023-07-31T11:23:23;100615.16;;;18.55;100.00
71043;BME280;58696;52.134;5.500;2023-07-31T11:25:52;100614.25;;;18.45;100.00
71043;BME280;58696;52.134;5.500;2023-07-31T11:28:21;100616.53;;;18.41;100.00
71043;BME280;58696;52.134;5.500;2023-07-31T11:30:55;100610.13;;;18.32;100.00
71043;BME280;58696;52.134;5.500;2023-07-31T11:33:23;100610.63;;;18.29;100.00
71043;BME280;58696;52.134;5.500;2023-07-31T11:35:51;100610.09;;;18.27;100.00
71043;BME280;58696;52.134;5.500;2023-07-31T11:38:25;100615.28;;;18.27;100.00
71043;BME280;58696;52.134;5.500;2023-07-31T11:40:53;100611.16;;;18.31;100.00
71043;BME280;58696;52.134;5.500;2023-07-31T11:43:20;100616.88;;;18.28;100.00
71043;BME280;58696;52.134;5.500;2023-07-31T11:45:52;100614.97;;;18.23;100.00
71043;BME280;58696;52.134;5.500;2023-07-31T11:48:24;100614.41;;;18.21;100.00
71043;BME280;58696;52.134;5.500;2023-07-31T11:51:06;100609.28;;;18.26;100.00
71043;BME280;58696;52.134;5.500;2023-07-31T11:53:56;100609.28;;;18.26;100.00
71043;BME280;58696;52.134;5.500;2023-07-31T11:56:26;100612.53;;;18.17;100.00
71043;BME280;58696;52.134;5.500;2023-07-31T11:58:59;100602.13;;;18.17;100.00
71043;BME280;58696;52.134;5.500;2023-07-31T12:01:27;100607.25;;;18.11;100.00
71043;BME280;58696;52.134;5.500;2023-07-31T12:03:55;100613.31;;;18.17;100.00
71043;BME280;58696;52.134;5.500;2023-07-31T12:06:32;100606.94;;;18.25;100.00
71043;BME280;58696;52.134;5.500;2023-07-31T12:09:05;100605.09;;;18.25;100.00
71043;BME280;58696;52.134;5.500;2023-07-31T12:11:49;100613.16;;;18.24;100.00
71043;BME280;58696;52.134;5.500;2023-07-31T12:14:25;100616.31;;;18.26;100.00
71043;BME280;58696;52.134;5.500;2023-07-31T12:19:30;100619.31;;;18.34;100.00
71043;BME280;58696;52.134;5.500;2023-07-31T12:22:02;100604.63;;;18.45;100.00
71043;BME280;58696;52.134;5.500;2023-07-31T12:24:33;100609.97;;;18.55;100.00
71043;BME280;58696;52.134;5.500;2023-07-31T12:27:08;100602.94;;;18.56;100.00
71043;BME280;58696;52.134;5.500;2023-07-31T12:29:35;100604.34;;;18.63;100.00
71043;BME280;58696;52.134;5.500;2023-07-31T12:32:23;100598.88;;;18.82;100.00
71043;BME280;58696;52.134;5.500;2023-07-31T12:34:51;100583.72;;;18.79;100.00
71043;BME280;58696;52.134;5.500;2023-07-31T12:37:25;100580.81;;;18.75;100.00
71043;BME280;58696;52.134;5.500;2023-07-31T12:39:54;100579.19;;;18.69;100.00
71043;BME280;58696;52.134;5.500;2023-07-31T12:42:24;100572.41;;;18.68;100.00
71043;BME280;58696;52.134;5.500;2023-07-31T12:44:57;100583.28;;;18.65;100.00
71043;BME280;58696;52.134;5.500;2023-07-31T12:47:27;100572.31;;;18.63;100.00
71043;BME280;58696;52.134;5.500;2023-07-31T12:49:54;100572.56;;;18.61;100.00
71043;BME280;58696;52.134;5.500;2023-07-31T12:52:23;100572.56;;;18.61;100.00
71043;BME280;58696;52.134;5.500;2023-07-31T12:54:52;100580.69;;;18.65;100.00
71043;BME280;58696;52.134;5.500;2023-07-31T12:57:24;100579.09;;;18.64;100.00
71043;BME280;58696;52.134;5.500;2023-07-31T12:59:56;100568.13;;;18.62;100.00
71043;BME280;58696;52.134;5.500;2023-07-31T13:02:23;100566.16;;;18.69;100.00
71043;BME280;58696;52.134;5.500;2023-07-31T13:04:54;100558.72;;;18.78;100.00
71043;BME280;58696;52.134;5.500;2023-07-31T13:07:25;100560.34;;;18.84;100.00
71043;BME280;58696;52.134;5.500;2023-07-31T13:09:52;100560.09;;;18.85;100.00
71043;BME280;58696;52.134;5.500;2023-07-31T13:12:22;100569.63;;;18.75;100.00